Etusivu
METAR-TAF:

METAR-TAF

Lentoasemat :

Houston, Texas, Yhdysvallat

Leveyspiiri: 29-30-22N, Pituuspiiri: 095-28-37W, korkeus merenpinnasta: 21 m

Tämänhetkinen sää

Tämä raportti tehtiin 24 minuuttia sitten, kello 07.35 UTC
Tuuli 5 kn kaakosta
Lämpötila 27°C
Kosteus 94%
Ilmanpaine 1009 hPa
Näkyvyys: 11.3 km
Pilvistä 1000 ft:n korkeudessa

METAR: KAXH 210735Z AUTO 14005KT 7SM OVC010 27/26 A2981 RMK AO2 T02650257

Aika: 01:59 (07:59 UTC)


TAF: puuttuu

Säähavainnot ja -ennusteet yli 4000 lentoasemalta (METAR- ja TAF-raportit).

Käytössä olevat sääasemat on merkitty karttaan keltaisilla ja punaisilla pisteillä.

Aseta hiiri pisteen päälle nähdäksesi sääaseman nimen.

Klikkaa sitten nähdäksesi säähavainnot ja -ennusteet.

Kartan vaihtaminen: klikkaa mustalla rastilla varustettuja vihreitä pisteitä, niin voit zoomata sisään; viivalla varustettua vihreää pistettä, niin voit zoomata ulos tai vihreitä nuolia, niin pääset viereisille kartoille.


METAR-TAF: